Time;durP1;ratioP1;P1;durP2;ratioP2;P2;SDS_P1;SDS_P2;PMS_P1;PMS_P2;Temp;Humidity;BMP_temperature;BMP_pressure;BME280_temperature;BME280_humidity;BME280_pressure;Samples;Min_cycle;Max_cycle;Signal;HPM_P1;HPM_P2
2023/10/01 00:00:26;;;;;;;10.93;2.38;;;;;;;13.62;100.00;102132.47;4949583;28;20652;-48
2023/10/01 00:02:53;;;;;;;11.48;2.80;;;;;;;13.58;100.00;102127.19;4948668;28;20704;-49
2023/10/01 00:05:22;;;;;;;9.95;2.83;;;;;;;13.56;100.00;102117.41;4947113;28;20277;-50
2023/10/01 00:07:49;;;;;;;8.75;2.30;;;;;;;13.60;100.00;102113.69;4949243;28;20233;-48
2023/10/01 00:10:14;;;;;;;8.85;2.78;;;;;;;13.65;100.00;102114.44;4948447;28;20257;-47
2023/10/01 00:12:44;;;;;;;7.47;2.30;;;;;;;13.69;100.00;102120.63;4945424;28;20661;-47
2023/10/01 00:15:11;;;;;;;12.02;2.60;;;;;;;13.72;100.00;102121.38;4952782;28;20195;-48
2023/10/01 00:17:40;;;;;;;8.38;2.45;;;;;;;13.73;100.00;102114.19;4948620;28;20195;-48
2023/10/01 00:20:27;;;;;;;11.38;2.42;;;;;;;13.77;100.00;102102.38;4943526;28;20198;-49
2023/10/01 00:23:00;;;;;;;12.57;2.78;;;;;;;13.77;100.00;102099.69;4943330;28;20573;-47
2023/10/01 00:25:27;;;;;;;10.32;2.53;;;;;;;13.74;100.00;102095.28;4944903;28;20191;-49
2023/10/01 00:27:53;;;;;;;13.63;3.08;;;;;;;13.77;100.00;102086.22;4947546;28;20183;-48
2023/10/01 00:30:20;;;;;;;9.13;2.38;;;;;;;13.75;100.00;102082.69;4947718;28;20575;-47
2023/10/01 00:32:46;;;;;;;10.15;2.58;;;;;;;13.64;100.00;102087.53;4942698;28;20210;-46
2023/10/01 00:35:11;;;;;;;9.65;2.40;;;;;;;13.64;100.00;102096.50;4948811;28;20196;-49
2023/10/01 00:37:38;;;;;;;8.63;2.55;;;;;;;13.63;100.00;102083.09;4960031;28;20270;-50
2023/10/01 00:40:05;;;;;;;5.72;2.10;;;;;;;13.64;100.00;102083.03;4947637;28;20238;-48
2023/10/01 00:42:36;;;;;;;7.25;2.30;;;;;;;13.64;100.00;102087.53;4947775;28;20847;-47
2023/10/01 00:45:03;;;;;;;11.07;2.50;;;;;;;13.56;100.00;102091.34;4943903;28;20618;-49
2023/10/01 00:47:32;;;;;;;11.90;2.47;;;;;;;13.55;100.00;102089.56;4948351;28;20612;-46
2023/10/01 00:49:59;;;;;;;9.40;2.75;;;;;;;13.53;100.00;102088.75;4948714;28;20621;-49
2023/10/01 00:52:24;;;;;;;11.63;2.60;;;;;;;13.51;100.00;102090.63;4961761;28;20209;-48
2023/10/01 00:54:54;;;;;;;15.93;3.05;;;;;;;13.47;100.00;102091.66;4943971;28;20198;-47
2023/10/01 00:57:21;;;;;;;7.55;2.58;;;;;;;13.53;100.00;102090.56;4945579;28;20192;-49
2023/10/01 00:59:48;;;;;;;7.13;2.35;;;;;;;13.56;100.00;102085.97;4947569;28;20333;-49
2023/10/01 01:02:15;;;;;;;9.85;2.80;;;;;;;13.58;100.00;102091.31;4961539;28;20213;-50
2023/10/01 01:05:05;;;;;;;9.40;2.53;;;;;;;13.54;100.00;102089.66;4962313;28;20187;-47
2023/10/01 01:07:31;;;;;;;9.10;2.40;;;;;;;13.48;100.00;102089.81;4963223;28;20536;-48
2023/10/01 01:09:57;;;;;;;15.20;2.88;;;;;;;13.45;100.00;102080.03;4946236;28;20195;-47
2023/10/01 01:12:24;;;;;;;10.13;2.35;;;;;;;13.49;100.00;102075.41;4947361;28;20281;-50
2023/10/01 01:14:49;;;;;;;7.53;2.28;;;;;;;13.62;100.00;102092.97;4945101;28;20182;-46
2023/10/01 01:17:14;;;;;;;10.05;2.67;;;;;;;13.58;100.00;102076.03;4950988;28;20195;-47
2023/10/01 01:19:43;;;;;;;9.95;2.20;;;;;;;13.54;100.00;102068.09;4946076;28;20174;-49
2023/10/01 01:22:28;;;;;;;9.18;2.28;;;;;;;13.60;100.00;102065.22;4949381;28;20219;-49
2023/10/01 01:24:57;;;;;;;11.85;2.65;;;;;;;13.55;100.00;102076.09;4945982;28;20182;-47
2023/10/01 01:27:30;;;;;;;8.60;2.55;;;;;;;13.51;100.00;102070.88;4952359;28;20197;-46
2023/10/01 01:29:57;;;;;;;9.82;2.33;;;;;;;13.49;100.00;102075.41;4947136;28;20242;-49
2023/10/01 01:32:24;;;;;;;11.07;2.38;;;;;;;13.43;100.00;102075.63;4946763;28;20223;-49
2023/10/01 01:34:52;;;;;;;8.98;2.20;;;;;;;13.41;100.00;102072.09;4962752;28;20217;-49
2023/10/01 01:40:13;;;;;;;4.80;1.95;;;;;;;13.42;100.00;102073.84;4970322;23;20227;-46
2023/10/01 01:42:39;;;;;;;6.15;2.30;;;;;;;13.47;100.00;102088.03;4926258;29;20313;-47
2023/10/01 01:45:25;;;;;;;6.68;2.42;;;;;;;13.44;100.00;102083.63;4946055;29;20274;-48
2023/10/01 01:47:50;;;;;;;8.60;2.70;;;;;;;13.36;100.00;102074.94;4940710;28;20190;-46
2023/10/01 01:50:19;;;;;;;15.38;2.75;;;;;;;13.32;100.00;102073.25;4937171;28;20199;-47
2023/10/01 01:52:51;;;;;;;8.20;2.45;;;;;;;13.38;100.00;102075.75;4933469;29;20354;-46
2023/10/01 01:55:27;;;;;;;10.35;2.40;;;;;;;13.35;100.00;102067.78;4934650;29;20537;-47
2023/10/01 01:58:10;;;;;;;6.32;2.35;;;;;;;13.35;100.00;102074.03;4920439;29;20555;-45
2023/10/01 02:00:39;;;;;;;7.03;2.58;;;;;;;13.46;100.00;102079.09;4934597;29;20183;-47
2023/10/01 02:03:10;;;;;;;12.30;3.15;;;;;;;13.33;100.00;102078.56;4939396;28;20591;-47
2023/10/01 02:05:47;;;;;;;12.00;2.83;;;;;;;13.35;100.00;102075.84;4919282;29;20175;-46
2023/10/01 02:08:34;;;;;;;8.27;2.63;;;;;;;13.38;100.00;102065.88;4931291;29;20291;-46
2023/10/01 02:11:04;;;;;;;13.55;2.80;;;;;;;13.35;100.00;102063.25;4936625;29;20206;-45
2023/10/01 02:13:33;;;;;;;8.77;2.95;;;;;;;13.37;100.00;102066.78;4934349;29;20199;-46
2023/10/01 02:16:18;;;;;;;10.85;2.75;;;;;;;13.35;100.00;102057.00;4934815;29;20278;-47
2023/10/01 02:18:56;;;;;;;12.07;2.88;;;;;;;13.35;100.00;102059.69;4935872;29;20202;-47
2023/10/01 02:21:43;;;;;;;10.32;2.38;;;;;;;13.38;100.00;102056.91;4929374;29;21064;-47
2023/10/01 02:24:13;;;;;;;10.45;2.72;;;;;;;13.40;100.00;102055.03;4936353;29;20195;-47
2023/10/01 02:26:42;;;;;;;9.80;2.80;;;;;;;13.44;100.00;102055.84;4936417;29;20479;-46
2023/10/01 02:29:13;;;;;;;12.82;2.88;;;;;;;13.43;100.00;102056.78;4934121;29;20234;-45
2023/10/01 02:31:48;;;;;;;7.38;2.10;;;;;;;13.44;100.00;102066.59;4931019;29;20203;-47
2023/10/01 02:34:14;;;;;;;10.05;2.95;;;;;;;13.41;100.00;102059.50;4933909;29;20183;-46
2023/10/01 02:36:42;;;;;;;7.97;2.30;;;;;;;13.50;100.00;102053.84;4930846;28;20446;-47
2023/10/01 02:39:20;;;;;;;10.50;2.40;;;;;;;13.44;100.00;102056.72;4935143;29;20191;-47
2023/10/01 02:42:09;;;;;;;7.38;2.70;;;;;;;13.41;100.00;102047.88;4938184;28;20195;-48
2023/10/01 02:44:40;;;;;;;6.65;2.53;;;;;;;13.38;100.00;102041.66;4950751;28;20674;-46
2023/10/01 02:47:16;;;;;;;9.48;2.70;;;;;;;13.35;100.00;102041.72;4935400;29;20205;-47
2023/10/01 02:49:52;;;;;;;10.60;2.40;;;;;;;13.42;100.00;102044.25;4935611;29;20309;-47
2023/10/01 02:52:23;;;;;;;10.88;2.40;;;;;;;13.38;100.00;102043.44;4933569;29;20218;-47
2023/10/01 02:54:54;;;;;;;11.20;3.05;;;;;;;13.26;100.00;102041.09;4934365;29;20183;-47
2023/10/01 02:57:24;;;;;;;11.25;3.05;;;;;;;13.29;100.00;102041.03;4931557;29;20187;-48
2023/10/01 03:02:41;;;;;;;7.50;2.33;;;;;;;13.41;100.00;102051.44;4934751;29;20215;-46
2023/10/01 03:05:16;;;;;;;10.27;3.38;;;;;;;13.45;100.00;102042.34;4941482;29;20206;-47
2023/10/01 03:07:45;;;;;;;12.55;3.13;;;;;;;13.35;100.00;102046.22;4949329;28;20190;-46
2023/10/01 03:10:32;;;;;;;11.18;2.30;;;;;;;13.42;100.00;102046.94;4937175;29;20195;-46
2023/10/01 03:13:14;;;;;;;9.98;2.38;;;;;;;13.48;100.00;102047.63;4936608;29;20253;-49
2023/10/01 03:15:43;;;;;;;6.10;2.30;;;;;;;13.44;100.00;102042.38;4945297;29;20183;-46
2023/10/01 03:18:17;;;;;;;10.93;2.60;;;;;;;13.46;100.00;102041.41;4934069;28;20283;-47
2023/10/01 03:23:17;;;;;;;5.28;2.17;;;;;;;13.49;100.00;102032.34;4942187;28;20286;-47
2023/10/01 03:25:57;;;;;;;10.90;2.60;;;;;;;13.47;100.00;102040.50;4939284;28;20214;-48
2023/10/01 03:28:26;;;;;;;14.77;3.17;;;;;;;13.46;100.00;102033.31;4931421;29;20180;-48
2023/10/01 03:31:01;;;;;;;10.20;2.92;;;;;;;13.42;100.00;102036.16;4939096;29;20191;-46
2023/10/01 03:33:30;;;;;;;11.13;3.28;;;;;;;13.37;100.00;102039.00;4936051;29;20831;-45
2023/10/01 03:35:57;;;;;;;12.95;3.17;;;;;;;13.38;100.00;102044.34;4935415;29;20187;-47
2023/10/01 03:38:24;;;;;;;12.55;2.88;;;;;;;13.39;100.00;102040.72;4931316;29;20271;-48
2023/10/01 03:41:07;;;;;;;11.05;3.13;;;;;;;13.34;100.00;102044.50;4934911;29;20191;-47
2023/10/01 03:43:35;;;;;;;12.32;2.70;;;;;;;13.24;100.00;102033.06;4934859;29;20218;-47
2023/10/01 03:46:13;;;;;;;11.23;3.15;;;;;;;13.27;100.00;102040.16;4936592;29;20258;-47
2023/10/01 03:49:00;;;;;;;7.78;3.03;;;;;;;13.31;100.00;102026.59;4932275;29;20203;-46
2023/10/01 03:51:52;;;;;;;7.40;2.78;;;;;;;13.35;100.00;102030.09;4938157;29;20657;-47
2023/10/01 03:57:20;;;;;;;9.65;2.63;;;;;;;13.24;100.00;102032.19;4941476;29;20612;-47
2023/10/01 03:59:53;;;;;;;8.77;2.78;;;;;;;13.27;100.00;102021.31;4942299;28;20257;-46
2023/10/01 04:02:27;;;;;;;11.30;3.20;;;;;;;13.32;100.00;102031.06;4942028;28;20262;-48
2023/10/01 04:04:56;;;;;;;7.05;2.70;;;;;;;13.25;100.00;102032.16;4938116;29;20575;-47
2023/10/01 04:07:40;;;;;;;13.63;3.28;;;;;;;13.24;100.00;102021.44;4935931;29;20230;-46
2023/10/01 04:10:13;;;;;;;12.55;3.00;;;;;;;13.22;100.00;102012.50;4942625;29;20199;-47
2023/10/01 04:12:50;;;;;;;8.95;2.72;;;;;;;13.21;100.00;102000.88;4938440;29;20207;-47
2023/10/01 04:15:29;;;;;;;13.88;2.92;;;;;;;13.24;100.00;102000.78;4936402;29;20675;-46
2023/10/01 04:23:47;;;;;;;12.57;2.70;;;;;;;13.32;100.00;101984.44;4937061;28;20202;-47
2023/10/01 04:26:16;;;;;;;9.50;2.67;;;;;;;13.37;100.00;101990.53;4934190;29;20188;-46
2023/10/01 04:28:47;;;;;;;11.93;3.22;;;;;;;13.22;100.00;101978.41;4935499;29;20547;-47
2023/10/01 04:31:19;;;;;;;10.55;2.72;;;;;;;13.27;100.00;101992.63;4939659;29;20489;-48
2023/10/01 04:33:50;;;;;;;10.48;3.03;;;;;;;13.25;100.00;101991.78;4943306;29;20194;-47
2023/10/01 04:36:16;;;;;;;6.97;2.63;;;;;;;13.19;100.00;101998.22;4935611;29;20654;-47
2023/10/01 04:38:43;;;;;;;15.18;3.28;;;;;;;13.20;100.00;102002.66;4939771;28;20271;-47
2023/10/01 04:41:16;;;;;;;8.52;2.95;;;;;;;13.23;100.00;101990.03;4942681;29;20199;-47
2023/10/01 04:46:30;;;;;;;8.18;3.03;;;;;;;13.28;100.00;101990.81;4935972;29;20198;-47
2023/10/01 04:48:56;;;;;;;8.75;2.92;;;;;;;13.32;100.00;101995.19;4939530;29;20685;-46
2023/10/01 04:51:22;;;;;;;8.32;3.15;;;;;;;13.27;100.00;101997.09;4938130;28;20215;-46
2023/10/01 04:53:49;;;;;;;8.63;3.40;;;;;;;13.20;100.00;102002.66;4931565;29;20297;-46
2023/10/01 04:56:20;;;;;;;11.90;3.22;;;;;;;13.22;100.00;102015.22;4932629;29;20191;-45
2023/10/01 04:58:51;;;;;;;11.52;3.47;;;;;;;13.29;100.00;101997.97;4933579;29;20271;-47
2023/10/01 05:01:18;;;;;;;12.75;3.83;;;;;;;13.11;100.00;101967.09;4936995;29;20191;-47
2023/10/01 05:03:44;;;;;;;12.15;3.20;;;;;;;13.14;100.00;102002.88;4941316;29;20575;-48
2023/10/01 05:06:18;;;;;;;14.00;3.45;;;;;;;13.10;100.00;102011.09;4942087;28;20182;-48
2023/10/01 05:08:43;;;;;;;15.20;5.18;;;;;;;13.16;100.00;102013.56;4941181;28;20203;-48
2023/10/01 05:11:13;;;;;;;14.20;4.07;;;;;;;13.18;100.00;101996.47;4935080;29;20202;-47
2023/10/01 05:13:51;;;;;;;12.45;4.97;;;;;;;13.21;100.00;102014.34;4933117;29;20206;-46
2023/10/01 05:16:26;;;;;;;14.75;4.70;;;;;;;13.22;100.00;102020.59;4933597;29;20542;-48
2023/10/01 05:19:09;;;;;;;16.30;5.13;;;;;;;13.17;100.00;102018.03;4933212;29;20192;-49
2023/10/01 05:21:47;;;;;;;12.77;4.40;;;;;;;13.20;100.00;102007.16;4925641;29;20188;-48
2023/10/01 05:24:16;;;;;;;9.82;4.80;;;;;;;13.12;100.00;102009.22;4935319;29;20198;-46
2023/10/01 05:26:44;;;;;;;11.32;4.95;;;;;;;13.06;100.00;102002.22;4937875;29;20255;-48
2023/10/01 05:29:13;;;;;;;10.95;4.50;;;;;;;13.09;100.00;101996.72;4932981;29;20203;-46
2023/10/01 05:31:40;;;;;;;13.63;5.05;;;;;;;13.13;100.00;102009.16;4932946;29;20550;-45
2023/10/01 05:34:05;;;;;;;14.15;4.70;;;;;;;13.13;100.00;102017.25;4934856;29;20721;-47
2023/10/01 05:36:32;;;;;;;8.40;3.75;;;;;;;13.23;100.00;102030.41;4932948;29;20334;-47
2023/10/01 05:39:00;;;;;;;9.65;3.95;;;;;;;13.14;100.00;102023.50;4948828;29;20178;-46
2023/10/01 05:41:35;;;;;;;9.00;4.05;;;;;;;13.05;100.00;102029.16;4935828;29;20179;-47
2023/10/01 05:44:04;;;;;;;13.68;4.28;;;;;;;13.07;100.00;102038.94;4932620;28;20677;-47
2023/10/01 05:46:30;;;;;;;9.32;4.28;;;;;;;13.09;100.00;102038.91;4923946;29;20175;-48
2023/10/01 05:49:00;;;;;;;12.88;4.47;;;;;;;13.01;100.00;102036.44;4932844;29;20206;-46
2023/10/01 05:51:45;;;;;;;11.35;4.30;;;;;;;13.05;100.00;102035.41;4937438;28;20262;-47
2023/10/01 05:54:18;;;;;;;9.40;3.72;;;;;;;13.09;100.00;102039.78;4936455;29;20289;-49
2023/10/01 05:56:47;;;;;;;9.52;3.75;;;;;;;13.05;100.00;102024.66;4934397;28;20261;-47
2023/10/01 05:59:14;;;;;;;9.60;3.80;;;;;;;13.05;100.00;102030.03;4940054;28;20174;-47
2023/10/01 06:01:40;;;;;;;13.30;3.95;;;;;;;13.06;100.00;102022.88;4932560;29;20552;-48
2023/10/01 06:04:09;;;;;;;9.77;3.72;;;;;;;13.06;100.00;102025.56;4935232;29;20182;-47
2023/10/01 06:06:36;;;;;;;9.60;3.20;;;;;;;13.15;100.00;102027.97;4936961;29;20577;-48
2023/10/01 06:09:09;;;;;;;10.70;3.75;;;;;;;13.14;100.00;102020.81;4941538;28;20265;-46
2023/10/01 06:11:42;;;;;;;8.23;3.90;;;;;;;13.09;100.00;102020.94;4937260;28;20906;-47
2023/10/01 06:14:29;;;;;;;9.70;3.33;;;;;;;13.13;100.00;102019.94;4935637;29;20605;-48
2023/10/01 06:17:00;;;;;;;12.52;3.40;;;;;;;13.11;100.00;102013.72;4945967;28;20213;-47
2023/10/01 06:19:26;;;;;;;13.18;3.80;;;;;;;13.05;100.00;102021.09;4943041;29;20473;-46
2023/10/01 06:21:53;;;;;;;13.45;3.60;;;;;;;13.07;100.00;102024.63;4938962;28;20179;-48
2023/10/01 06:24:21;;;;;;;8.52;3.17;;;;;;;13.06;100.00;102021.03;4934718;29;20237;-48
2023/10/01 06:26:47;;;;;;;10.00;3.20;;;;;;;13.07;100.00;102035.38;4936386;29;20194;-46
2023/10/01 06:29:13;;;;;;;11.52;3.63;;;;;;;13.13;100.00;102025.31;4943886;28;20195;-48
2023/10/01 06:32:00;;;;;;;9.02;3.65;;;;;;;13.17;100.00;102031.50;4939965;29;20278;-48
2023/10/01 06:34:31;;;;;;;9.82;3.65;;;;;;;13.22;100.00;102034.03;4936299;29;20219;-47
2023/10/01 06:36:59;;;;;;;14.70;3.92;;;;;;;13.25;100.00;102033.94;4936203;29;20266;-47
2023/10/01 06:39:25;;;;;;;10.05;3.53;;;;;;;13.31;100.00;102037.34;4936110;29;20206;-45
2023/10/01 06:41:52;;;;;;;12.98;3.65;;;;;;;13.29;100.00;102035.66;4943896;28;20663;-47
2023/10/01 06:44:21;;;;;;;7.07;3.03;;;;;;;13.33;100.00;102027.44;4934720;29;20184;-46
2023/10/01 06:46:48;;;;;;;8.98;3.28;;;;;;;13.41;100.00;102037.97;4941633;29;20543;-45
2023/10/01 06:49:18;;;;;;;13.40;4.20;;;;;;;13.38;100.00;102029.97;4936087;29;20207;-46
2023/10/01 06:51:44;;;;;;;9.43;3.30;;;;;;;13.39;100.00;102038.00;4949205;28;20563;-46
2023/10/01 06:54:11;;;;;;;10.77;3.08;;;;;;;13.47;100.00;102028.81;4941731;28;20556;-47
2023/10/01 06:56:38;;;;;;;11.00;4.22;;;;;;;13.45;100.00;102026.19;4944004;29;20187;-47
2023/10/01 07:01:34;;;;;;;10.15;4.47;;;;;;;13.32;100.00;102043.66;4945922;29;20186;-47
2023/10/01 07:04:05;;;;;;;9.52;4.13;;;;;;;13.37;100.00;102044.38;4951536;29;20198;-49
2023/10/01 07:06:38;;;;;;;11.02;4.30;;;;;;;13.42;100.00;102050.50;4938243;29;20566;-46
2023/10/01 07:09:23;;;;;;;10.55;4.10;;;;;;;13.39;100.00;102053.28;4944972;28;20588;-46
2023/10/01 07:11:49;;;;;;;10.23;3.90;;;;;;;13.44;100.00;102043.25;4937839;28;20230;-45
2023/10/01 07:14:18;;;;;;;14.07;4.35;;;;;;;13.40;100.00;102044.28;4947095;29;20214;-47
2023/10/01 07:16:44;;;;;;;12.55;4.35;;;;;;;13.45;100.00;102053.13;4945476;28;20175;-46
2023/10/01 07:19:13;;;;;;;11.00;4.00;;;;;;;13.57;100.00;102046.44;4944119;29;20230;-48
2023/10/01 07:21:45;;;;;;;9.50;4.45;;;;;;;13.62;100.00;102035.53;4936394;28;20188;-47
2023/10/01 07:24:11;;;;;;;10.73;4.63;;;;;;;13.75;100.00;102024.34;4939425;29;20182;-48
2023/10/01 07:26:40;;;;;;;13.40;4.60;;;;;;;13.67;100.00;102041.69;4947502;28;20744;-47
2023/10/01 07:29:08;;;;;;;9.32;4.57;;;;;;;13.77;100.00;102035.03;4936241;28;20247;-47
2023/10/01 07:31:35;;;;;;;15.15;4.47;;;;;;;13.68;100.00;102033.53;4947612;29;20218;-46
2023/10/01 07:34:12;;;;;;;10.00;3.55;;;;;;;13.81;100.00;102034.03;4974628;23;20230;-43
2023/10/01 07:36:45;;;;;;;11.60;3.97;;;;;;;13.86;100.00;102031.16;4985157;28;20228;-42
2023/10/01 07:39:15;;;;;;;11.05;4.78;;;;;;;13.91;100.00;102019.31;4981336;28;20228;-43
2023/10/01 07:41:44;;;;;;;9.43;4.15;;;;;;;13.89;100.00;102023.00;4991436;28;20687;-43
2023/10/01 07:44:12;;;;;;;10.13;4.72;;;;;;;14.00;100.00;102024.41;4984347;28;20302;-43
2023/10/01 07:46:37;;;;;;;12.50;4.93;;;;;;;13.88;100.00;102032.88;4987580;28;20269;-43
2023/10/01 07:49:04;;;;;;;9.63;4.00;;;;;;;13.93;100.00;102054.31;4983228;28;20276;-42
2023/10/01 07:51:38;;;;;;;12.63;4.88;;;;;;;13.81;100.00;102051.06;4989825;28;20560;-41
2023/10/01 07:54:22;;;;;;;10.95;4.85;;;;;;;13.72;100.00;102056.75;4981938;28;20182;-42
2023/10/01 07:56:49;;;;;;;14.85;5.35;;;;;;;13.74;100.00;102062.09;4979494;28;20182;-43
2023/10/01 07:59:34;;;;;;;10.50;4.78;;;;;;;13.76;100.00;102049.47;4984388;28;20173;-42
2023/10/01 08:04:59;;;;;;;11.60;5.65;;;;;;;13.82;100.00;102041.19;4981656;28;20257;-42
2023/10/01 08:07:45;;;;;;;15.30;5.47;;;;;;;13.87;100.00;102028.44;4989427;28;20268;-43
2023/10/01 08:10:17;;;;;;;8.25;4.57;;;;;;;13.91;100.00;102029.22;4984218;28;20755;-43
2023/10/01 08:13:06;;;;;;;9.73;4.97;;;;;;;13.96;100.00;102027.25;4982284;28;20206;-43
2023/10/01 08:15:32;;;;;;;14.32;6.15;;;;;;;13.96;100.00;102027.25;4980309;28;20200;-42
2023/10/01 08:18:26;;;;;;;15.60;6.63;;;;;;;13.91;100.00;102030.09;4983218;28;20189;-42
2023/10/01 08:20:57;;;;;;;12.55;6.28;;;;;;;13.96;100.00;102013.78;4983494;28;20186;-43
2023/10/01 08:23:25;;;;;;;12.48;6.75;;;;;;;13.92;100.00;102025.59;4987555;28;20192;-43
2023/10/01 08:25:55;;;;;;;18.00;6.22;;;;;;;13.97;100.00;102029.91;4986229;28;20217;-43
2023/10/01 08:30:49;;;;;;;13.57;6.15;;;;;;;13.97;100.00;102043.38;4980409;28;20182;-41
2023/10/01 08:33:18;;;;;;;11.43;5.70;;;;;;;14.02;100.00;102035.13;4981248;28;20206;-44
2023/10/01 08:35:56;;;;;;;16.35;7.45;;;;;;;14.08;100.00;102047.50;5001878;28;20267;-43
2023/10/01 08:38:29;;;;;;;11.63;5.78;;;;;;;14.12;100.00;102049.16;4985341;28;20180;-42
2023/10/01 08:41:02;;;;;;;15.77;6.57;;;;;;;14.09;100.00;102039.38;4981000;28;20201;-43
2023/10/01 08:43:31;;;;;;;12.18;6.03;;;;;;;14.11;100.00;102042.91;4982761;28;20197;-42
2023/10/01 08:46:08;;;;;;;14.55;6.13;;;;;;;14.07;100.00;102035.84;4979216;28;20198;-42
2023/10/01 08:48:36;;;;;;;14.48;6.57;;;;;;;14.08;100.00;102039.41;4981068;28;20174;-41
2023/10/01 08:51:11;;;;;;;13.23;6.25;;;;;;;14.16;100.00;102050.84;4983322;28;20273;-41
2023/10/01 08:53:41;;;;;;;15.65;6.22;;;;;;;14.31;100.00;102044.91;4979941;28;20219;-41
2023/10/01 08:56:32;;;;;;;13.30;6.13;;;;;;;14.41;100.00;102050.91;4981657;28;20186;-42
2023/10/01 08:58:59;;;;;;;13.70;6.80;;;;;;;14.51;100.00;102051.44;4984705;28;20727;-43
2023/10/01 09:01:29;;;;;;;16.30;6.78;;;;;;;14.60;100.00;102056.53;4985744;28;20196;-43
2023/10/01 09:03:57;;;;;;;16.58;6.95;;;;;;;14.59;100.00;102052.09;4983636;28;20212;-43
2023/10/01 09:06:24;;;;;;;15.73;7.20;;;;;;;14.72;100.00;102039.94;4985625;28;20172;-43
2023/10/01 09:08:54;;;;;;;16.42;6.80;;;;;;;14.89;100.00;102030.31;4979237;28;20245;-42
2023/10/01 09:11:35;;;;;;;22.95;7.47;;;;;;;14.86;100.00;102033.13;4982889;28;20245;-43
2023/10/01 09:14:17;;;;;;;13.32;7.05;;;;;;;14.94;100.00;102026.53;4977590;28;20237;-43
2023/10/01 09:16:45;;;;;;;15.18;7.35;;;;;;;14.85;100.00;102029.56;4988462;28;20176;-42
2023/10/01 09:19:30;;;;;;;19.15;7.18;;;;;;;14.80;100.00;102024.34;4988205;28;20193;-41
2023/10/01 09:22:04;;;;;;;14.48;7.30;;;;;;;14.89;100.00;102024.91;4985371;28;20189;-43
2023/10/01 09:24:39;;;;;;;17.20;7.18;;;;;;;14.96;100.00;102034.56;4984422;28;20219;-42
2023/10/01 09:27:18;;;;;;;12.05;5.90;;;;;;;15.01;100.00;102033.44;4983491;28;20208;-43
2023/10/01 09:30:23;;;;;;;14.38;7.57;;;;;;;15.01;100.00;102035.25;4979475;28;20201;-42
2023/10/01 09:32:52;;;;;;;13.38;6.78;;;;;;;15.12;100.00;102022.25;4981473;28;20202;-43
2023/10/01 09:35:39;;;;;;;15.45;7.32;;;;;;;15.29;100.00;102026.13;4984060;28;20182;-42
2023/10/01 09:38:11;;;;;;;13.45;6.57;;;;;;;15.41;100.00;102013.03;4982564;28;20224;-42
2023/10/01 09:40:38;;;;;;;26.13;8.65;;;;;;;15.38;100.00;102009.56;4978377;28;20205;-42
2023/10/01 09:43:04;;;;;;;17.45;8.02;;;;;;;15.77;100.00;102004.41;4980644;28;20209;-39
2023/10/01 09:45:37;;;;;;;18.10;6.55;;;;;;;15.94;100.00;101994.69;4980470;28;20184;-42
2023/10/01 09:48:09;;;;;;;17.77;7.45;;;;;;;16.01;100.00;101996.22;4978222;28;20190;-41
2023/10/01 09:50:42;;;;;;;18.88;7.15;;;;;;;16.00;100.00;101987.19;4978055;28;20193;-41
2023/10/01 09:53:12;;;;;;;15.45;6.93;;;;;;;15.98;100.00;101988.22;4976853;28;20222;-43
2023/10/01 09:55:47;;;;;;;16.88;8.43;;;;;;;15.76;100.00;101980.13;4987933;28;20177;-43
2023/10/01 09:58:24;;;;;;;17.08;8.15;;;;;;;15.78;100.00;101987.22;4980627;28;20192;-43
2023/10/01 10:01:01;;;;;;;13.98;7.38;;;;;;;15.62;100.00;101995.06;4976641;28;20540;-43
2023/10/01 10:03:38;;;;;;;20.17;7.85;;;;;;;15.58;100.00;101990.72;4981456;28;20241;-43
2023/10/01 10:06:06;;;;;;;14.68;8.05;;;;;;;15.84;100.00;101986.09;4986386;28;20293;-44
2023/10/01 10:08:36;;;;;;;17.30;8.48;;;;;;;15.75;100.00;101989.19;4981846;28;20201;-43
2023/10/01 10:11:06;;;;;;;17.60;8.18;;;;;;;15.72;100.00;101995.63;4978035;28;20495;-41
2023/10/01 10:16:29;;;;;;;16.48;8.48;;;;;;;15.75;100.00;101972.97;4978374;28;20261;-44
2023/10/01 10:19:12;;;;;;;16.73;8.32;;;;;;;15.62;100.00;101972.56;4978208;28;20236;-42
2023/10/01 10:24:30;;;;;;;13.50;7.53;;;;;;;15.88;100.00;101985.03;4982630;28;20190;-42
2023/10/01 10:27:09;;;;;;;13.80;7.32;;;;;;;15.88;100.00;101979.63;4981024;28;20181;-43
2023/10/01 10:29:47;;;;;;;17.80;7.97;;;;;;;15.89;100.00;101969.69;4980450;28;20263;-42
2023/10/01 10:32:12;;;;;;;14.85;7.80;;;;;;;15.88;100.00;101979.63;4980218;28;20217;-44
2023/10/01 10:34:47;;;;;;;14.65;7.72;;;;;;;15.85;100.00;101990.56;4983938;28;20659;-43
2023/10/01 10:37:35;;;;;;;13.77;7.63;;;;;;;15.94;100.00;101994.69;4983319;28;21106;-44
2023/10/01 10:42:47;;;;;;;17.98;7.93;;;;;;;15.89;100.00;101989.47;4981918;28;20204;-44
2023/10/01 10:45:20;;;;;;;18.90;8.15;;;;;;;15.93;100.00;101980.31;4982734;28;20173;-43
2023/10/01 10:48:03;;;;;;;17.50;7.55;;;;;;;16.03;100.00;101987.09;4982187;28;20252;-44
2023/10/01 10:50:48;;;;;;;17.23;7.05;;;;;;;16.13;100.00;101979.44;4983075;28;20205;-43
2023/10/01 10:53:21;;;;;;;15.63;8.00;;;;;;;16.11;100.00;101970.53;4984962;28;20201;-43
2023/10/01 10:56:08;;;;;;;17.27;7.40;;;;;;;16.12;100.00;101964.19;4986155;28;20194;-44
2023/10/01 10:58:41;;;;;;;13.27;7.22;;;;;;;16.17;100.00;101955.88;4983273;28;20254;-42
2023/10/01 11:01:20;;;;;;;15.70;7.88;;;;;;;16.19;99.88;101959.38;4985093;28;20656;-42
2023/10/01 11:03:57;;;;;;;12.88;7.22;;;;;;;16.41;99.60;101981.84;4983442;28;20212;-42
2023/10/01 11:06:39;;;;;;;15.50;7.78;;;;;;;16.35;98.98;101971.28;4987860;28;20621;-44
2023/10/01 11:09:22;;;;;;;15.93;7.82;;;;;;;16.36;98.71;101975.75;4984982;28;20660;-42
2023/10/01 11:11:48;;;;;;;16.75;7.90;;;;;;;16.35;98.21;101970.41;4983767;28;20708;-44
2023/10/01 11:14:17;;;;;;;16.95;8.98;;;;;;;16.26;97.72;101967.16;4987545;28;20193;-43
2023/10/01 11:16:44;;;;;;;16.67;9.40;;;;;;;16.17;97.69;101969.41;4982464;28;20174;-43
2023/10/01 11:19:14;;;;;;;15.90;8.65;;;;;;;16.36;97.59;101985.72;4982935;28;20186;-42
2023/10/01 11:21:55;;;;;;;16.80;9.10;;;;;;;16.13;97.04;101973.16;4984912;28;20193;-44
2023/10/01 11:24:33;;;;;;;12.73;8.40;;;;;;;16.14;97.67;101970.41;4986435;28;20185;-44
2023/10/01 11:27:20;;;;;;;17.02;8.93;;;;;;;16.19;98.31;101981.91;4988109;28;20265;-44
2023/10/01 11:30:12;;;;;;;16.58;8.93;;;;;;;16.35;99.34;101973.97;4987504;28;20251;-41
2023/10/01 11:35:37;;;;;;;14.90;8.75;;;;;;;16.43;100.00;101968.25;4985342;28;20181;-43
2023/10/01 11:38:13;;;;;;;16.58;9.10;;;;;;;16.53;100.00;101958.78;4983488;28;20265;-43
2023/10/01 11:43:32;;;;;;;19.10;9.68;;;;;;;16.53;100.00;101968.69;4983075;28;20236;-43
2023/10/01 11:46:19;;;;;;;18.38;8.93;;;;;;;16.60;100.00;101954.84;4980866;28;20170;-42
2023/10/01 11:49:06;;;;;;;12.85;8.70;;;;;;;16.75;100.00;101957.78;4983034;28;20580;-42
2023/10/01 11:51:43;;;;;;;16.27;9.15;;;;;;;16.53;99.14;101953.38;4982734;28;20197;-42
2023/10/01 11:54:11;;;;;;;19.58;10.13;;;;;;;16.55;99.82;101955.97;4980476;28;20192;-43
2023/10/01 11:57:04;;;;;;;22.73;10.00;;;;;;;16.61;100.00;101953.88;4984290;28;20644;-44
2023/10/01 11:59:30;;;;;;;19.30;9.57;;;;;;;16.85;100.00;101953.72;4980459;28;20584;-43
2023/10/01 12:02:15;;;;;;;23.17;10.50;;;;;;;16.86;99.51;101958.22;4981844;28;20224;-42
2023/10/01 12:04:44;;;;;;;15.88;9.15;;;;;;;16.71;97.79;101948.06;4982348;28;20252;-43
2023/10/01 12:07:17;;;;;;;12.80;9.15;;;;;;;16.69;97.74;101951.72;4984197;28;20272;-43
2023/10/01 12:09:50;;;;;;;15.48;9.02;;;;;;;16.62;97.52;101952.06;4982352;28;20213;-44
2023/10/01 12:12:21;;;;;;;15.10;8.35;;;;;;;16.51;97.64;101947.16;4984842;28;20232;-43
2023/10/01 12:14:54;;;;;;;18.30;8.90;;;;;;;16.38;97.24;101938.69;4981772;28;20185;-43
2023/10/01 12:17:24;;;;;;;15.52;8.63;;;;;;;16.39;97.99;101948.56;4981987;28;20614;-44